sensor_id;sensor_type;location;lat;lon;timestamp;pressure;altitude;pressure_sealevel;temperature;humidity
6032;BME280;3044;43.232;27.972;2024-01-25T00:01:35;45245.19;;;-143.84;64.05
6032;BME280;3044;43.232;27.972;2024-01-25T00:04:03;45241.41;;;-143.84;64.07
6032;BME280;3044;43.232;27.972;2024-01-25T00:06:30;45205.22;;;-143.84;64.31
6032;BME280;3044;43.232;27.972;2024-01-25T00:08:58;45201.41;;;-143.84;64.39
6032;BME280;3044;43.232;27.972;2024-01-25T00:11:26;45205.22;;;-143.84;64.59
6032;BME280;3044;43.232;27.972;2024-01-25T00:13:57;45233.78;;;-143.84;64.31
6032;BME280;3044;43.232;27.972;2024-01-25T00:16:24;45222.34;;;-143.84;64.39
6032;BME280;3044;43.232;27.972;2024-01-25T00:18:51;45233.78;;;-143.84;64.17
6032;BME280;3044;43.232;27.972;2024-01-25T00:21:18;45216.63;;;-143.84;63.80
6032;BME280;3044;43.232;27.972;2024-01-25T00:23:45;45212.84;;;-143.84;64.24
6032;BME280;3044;43.232;27.972;2024-01-25T00:26:14;45216.63;;;-143.84;64.48
6032;BME280;3044;43.232;27.972;2024-01-25T00:28:41;45212.84;;;-143.84;64.15
6032;BME280;3044;43.232;27.972;2024-01-25T00:31:08;45226.16;;;-143.84;64.48
6032;BME280;3044;43.232;27.972;2024-01-25T00:33:35;45220.44;;;-143.84;64.36
6032;BME280;3044;43.232;27.972;2024-01-25T00:36:03;45193.78;;;-143.84;64.87
6032;BME280;3044;43.232;27.972;2024-01-25T00:38:31;45220.44;;;-143.84;64.72
6032;BME280;3044;43.232;27.972;2024-01-25T00:40:58;45205.22;;;-143.84;64.77
6032;BME280;3044;43.232;27.972;2024-01-25T00:43:28;45220.44;;;-143.84;64.74
6032;BME280;3044;43.232;27.972;2024-01-25T00:45:55;45226.16;;;-143.84;64.48
6032;BME280;3044;43.232;27.972;2024-01-25T00:48:23;45218.53;;;-143.84;64.18
6032;BME280;3044;43.232;27.972;2024-01-25T00:50:51;45229.97;;;-143.84;64.30
6032;BME280;3044;43.232;27.972;2024-01-25T00:53:18;45226.16;;;-143.84;64.22
6032;BME280;3044;43.232;27.972;2024-01-25T00:55:46;45212.84;;;-143.84;64.22
6032;BME280;3044;43.232;27.972;2024-01-25T00:58:14;45210.94;;;-143.84;63.94
6032;BME280;3044;43.232;27.972;2024-01-25T01:00:43;45231.88;;;-143.84;64.02
6032;BME280;3044;43.232;27.972;2024-01-25T01:03:11;45229.97;;;-143.84;63.86
6032;BME280;3044;43.232;27.972;2024-01-25T01:05:39;45195.69;;;-143.84;63.76
6032;BME280;3044;43.232;27.972;2024-01-25T01:08:07;45228.06;;;-143.84;63.58
6032;BME280;3044;43.232;27.972;2024-01-25T01:10:34;45195.69;;;-143.84;63.88
6032;BME280;3044;43.232;27.972;2024-01-25T01:13:01;45212.84;;;-143.84;63.96
6032;BME280;3044;43.232;27.972;2024-01-25T01:15:28;45209.03;;;-143.84;63.79
6032;BME280;3044;43.232;27.972;2024-01-25T01:17:57;45237.59;;;-143.84;63.82
6032;BME280;3044;43.232;27.972;2024-01-25T01:20:24;45218.53;;;-143.84;64.03
6032;BME280;3044;43.232;27.972;2024-01-25T01:22:51;45220.44;;;-143.84;64.11
6032;BME280;3044;43.232;27.972;2024-01-25T01:25:19;45216.63;;;-143.84;64.25
6032;BME280;3044;43.232;27.972;2024-01-25T01:27:46;45216.63;;;-143.84;64.19
6032;BME280;3044;43.232;27.972;2024-01-25T01:30:13;45237.59;;;-143.84;64.53
6032;BME280;3044;43.232;27.972;2024-01-25T01:32:40;45214.72;;;-143.84;64.74
6032;BME280;3044;43.232;27.972;2024-01-25T01:35:09;45247.09;;;-143.84;64.20
6032;BME280;3044;43.232;27.972;2024-01-25T01:37:36;45197.59;;;-143.84;64.28
6032;BME280;3044;43.232;27.972;2024-01-25T01:40:04;45205.22;;;-143.84;64.54
6032;BME280;3044;43.232;27.972;2024-01-25T01:42:31;45222.34;;;-143.84;64.52
6032;BME280;3044;43.232;27.972;2024-01-25T01:44:59;45231.88;;;-143.84;64.17
6032;BME280;3044;43.232;27.972;2024-01-25T01:47:26;45205.22;;;-143.84;64.20
6032;BME280;3044;43.232;27.972;2024-01-25T01:49:53;45201.41;;;-143.84;64.18
6032;BME280;3044;43.232;27.972;2024-01-25T01:52:22;45207.13;;;-143.84;64.45
6032;BME280;3044;43.232;27.972;2024-01-25T01:54:51;45233.78;;;-143.84;64.31
6032;BME280;3044;43.232;27.972;2024-01-25T01:57:18;45197.59;;;-143.84;64.40
6032;BME280;3044;43.232;27.972;2024-01-25T01:59:45;45203.31;;;-143.84;64.09
6032;BME280;3044;43.232;27.972;2024-01-25T02:02:14;45231.88;;;-143.84;63.86
6032;BME280;3044;43.232;27.972;2024-01-25T02:04:42;45214.72;;;-143.84;63.68
6032;BME280;3044;43.232;27.972;2024-01-25T02:07:10;45216.63;;;-143.84;63.11
6032;BME280;3044;43.232;27.972;2024-01-25T02:09:39;45231.88;;;-143.84;62.86
6032;BME280;3044;43.232;27.972;2024-01-25T02:12:06;45201.41;;;-143.84;62.26
6032;BME280;3044;43.232;27.972;2024-01-25T02:14:33;45195.69;;;-143.84;62.42
6032;BME280;3044;43.232;27.972;2024-01-25T02:17:00;45209.03;;;-143.84;62.16
6032;BME280;3044;43.232;27.972;2024-01-25T02:19:28;45186.16;;;-143.84;61.90
6032;BME280;3044;43.232;27.972;2024-01-25T02:21:57;45212.84;;;-143.84;61.05
6032;BME280;3044;43.232;27.972;2024-01-25T02:24:27;45193.78;;;-143.84;59.92
6032;BME280;3044;43.232;27.972;2024-01-25T02:26:54;45191.88;;;-143.84;59.43
6032;BME280;3044;43.232;27.972;2024-01-25T02:29:21;45209.03;;;-143.84;58.99
6032;BME280;3044;43.232;27.972;2024-01-25T02:31:48;45203.31;;;-143.84;59.47
6032;BME280;3044;43.232;27.972;2024-01-25T02:34:15;45231.88;;;-143.84;59.13
6032;BME280;3044;43.232;27.972;2024-01-25T02:36:42;45195.69;;;-143.84;59.45
6032;BME280;3044;43.232;27.972;2024-01-25T02:39:09;45197.59;;;-143.84;59.28
6032;BME280;3044;43.232;27.972;2024-01-25T02:41:38;45216.63;;;-143.84;59.66
6032;BME280;3044;43.232;27.972;2024-01-25T02:44:06;45199.50;;;-143.84;59.20
6032;BME280;3044;43.232;27.972;2024-01-25T02:46:33;45199.50;;;-143.84;59.44
6032;BME280;3044;43.232;27.972;2024-01-25T02:49:00;45195.69;;;-143.84;59.15
6032;BME280;3044;43.232;27.972;2024-01-25T02:51:27;45197.59;;;-143.84;59.20
6032;BME280;3044;43.232;27.972;2024-01-25T02:53:54;45186.16;;;-143.84;59.13
6032;BME280;3044;43.232;27.972;2024-01-25T02:56:21;45214.72;;;-143.84;59.39
6032;BME280;3044;43.232;27.972;2024-01-25T02:58:50;45209.03;;;-143.84;59.51
6032;BME280;3044;43.232;27.972;2024-01-25T03:01:17;45174.75;;;-143.84;59.32
6032;BME280;3044;43.232;27.972;2024-01-25T03:03:44;45197.59;;;-143.84;59.53
6032;BME280;3044;43.232;27.972;2024-01-25T03:06:11;45199.50;;;-143.84;59.36
6032;BME280;3044;43.232;27.972;2024-01-25T03:08:38;45199.50;;;-143.84;58.76
6032;BME280;3044;43.232;27.972;2024-01-25T03:11:05;45195.69;;;-143.84;58.65
6032;BME280;3044;43.232;27.972;2024-01-25T03:13:32;45203.31;;;-143.84;58.59
6032;BME280;3044;43.232;27.972;2024-01-25T03:16:01;45201.41;;;-143.84;57.65
6032;BME280;3044;43.232;27.972;2024-01-25T03:18:28;45188.06;;;-143.84;57.04
6032;BME280;3044;43.232;27.972;2024-01-25T03:20:55;45197.59;;;-143.84;55.77
6032;BME280;3044;43.232;27.972;2024-01-25T03:23:22;45203.31;;;-143.84;55.97
6032;BME280;3044;43.232;27.972;2024-01-25T03:25:49;45210.94;;;-143.84;54.59
6032;BME280;3044;43.232;27.972;2024-01-25T03:28:16;45193.78;;;-143.84;53.83
6032;BME280;3044;43.232;27.972;2024-01-25T03:30:44;45197.59;;;-143.84;52.99
6032;BME280;3044;43.232;27.972;2024-01-25T03:33:13;45203.31;;;-143.84;51.10
6032;BME280;3044;43.232;27.972;2024-01-25T03:35:40;45193.78;;;-143.84;50.96
6032;BME280;3044;43.232;27.972;2024-01-25T03:38:07;45176.66;;;-143.84;49.89
6032;BME280;3044;43.232;27.972;2024-01-25T03:40:34;45188.06;;;-143.84;49.60
6032;BME280;3044;43.232;27.972;2024-01-25T03:43:01;45191.88;;;-143.84;48.99
6032;BME280;3044;43.232;27.972;2024-01-25T03:45:28;45205.22;;;-143.84;48.90
6032;BME280;3044;43.232;27.972;2024-01-25T03:47:55;45182.38;;;-143.84;48.54
6032;BME280;3044;43.232;27.972;2024-01-25T03:50:24;45214.72;;;-143.84;48.33
6032;BME280;3044;43.232;27.972;2024-01-25T03:52:51;45188.06;;;-143.84;48.18
6032;BME280;3044;43.232;27.972;2024-01-25T03:55:18;45214.72;;;-143.84;48.23
6032;BME280;3044;43.232;27.972;2024-01-25T03:57:45;45163.31;;;-143.84;48.08
6032;BME280;3044;43.232;27.972;2024-01-25T04:00:13;45210.94;;;-143.84;47.90
6032;BME280;3044;43.232;27.972;2024-01-25T04:02:40;45188.06;;;-143.84;47.97
6032;BME280;3044;43.232;27.972;2024-01-25T04:05:07;45186.16;;;-143.84;47.74
6032;BME280;3044;43.232;27.972;2024-01-25T04:07:36;45205.22;;;-143.84;48.22
6032;BME280;3044;43.232;27.972;2024-01-25T04:10:03;45189.97;;;-143.84;47.70
6032;BME280;3044;43.232;27.972;2024-01-25T04:12:31;45220.44;;;-143.84;48.08
6032;BME280;3044;43.232;27.972;2024-01-25T04:14:58;45186.16;;;-143.84;47.92
6032;BME280;3044;43.232;27.972;2024-01-25T04:17:26;45203.31;;;-143.84;48.14
6032;BME280;3044;43.232;27.972;2024-01-25T04:19:53;45180.47;;;-143.84;48.02
6032;BME280;3044;43.232;27.972;2024-01-25T04:22:20;45199.50;;;-143.84;47.91
6032;BME280;3044;43.232;27.972;2024-01-25T04:24:48;45184.25;;;-143.84;48.20
6032;BME280;3044;43.232;27.972;2024-01-25T04:27:15;45201.41;;;-143.84;48.07
6032;BME280;3044;43.232;27.972;2024-01-25T04:29:44;45167.13;;;-143.84;48.10
6032;BME280;3044;43.232;27.972;2024-01-25T04:32:12;45186.16;;;-143.84;48.68
6032;BME280;3044;43.232;27.972;2024-01-25T04:34:39;45205.22;;;-143.84;48.83
6032;BME280;3044;43.232;27.972;2024-01-25T04:37:06;45193.78;;;-143.84;49.08
6032;BME280;3044;43.232;27.972;2024-01-25T04:39:33;45163.31;;;-143.84;49.69
6032;BME280;3044;43.232;27.972;2024-01-25T04:42:02;45199.50;;;-143.84;49.34
6032;BME280;3044;43.232;27.972;2024-01-25T04:44:29;45184.25;;;-143.84;50.09
6032;BME280;3044;43.232;27.972;2024-01-25T04:46:56;45176.66;;;-143.84;50.25
6032;BME280;3044;43.232;27.972;2024-01-25T04:49:23;45203.31;;;-143.84;50.06
6032;BME280;3044;43.232;27.972;2024-01-25T04:51:51;45193.78;;;-143.84;50.70
6032;BME280;3044;43.232;27.972;2024-01-25T04:54:18;45186.16;;;-143.84;50.36
6032;BME280;3044;43.232;27.972;2024-01-25T04:56:45;45214.72;;;-143.84;50.78
6032;BME280;3044;43.232;27.972;2024-01-25T04:59:13;45176.66;;;-143.84;51.32
6032;BME280;3044;43.232;27.972;2024-01-25T05:01:41;45203.31;;;-143.84;51.42
6032;BME280;3044;43.232;27.972;2024-01-25T05:04:08;45201.41;;;-143.84;52.33
6032;BME280;3044;43.232;27.972;2024-01-25T05:06:35;45214.72;;;-143.84;53.22
6032;BME280;3044;43.232;27.972;2024-01-25T05:09:02;45205.22;;;-143.84;53.69
6032;BME280;3044;43.232;27.972;2024-01-25T05:11:29;45195.69;;;-143.84;53.74
6032;BME280;3044;43.232;27.972;2024-01-25T05:13:56;45197.59;;;-143.84;54.58
6032;BME280;3044;43.232;27.972;2024-01-25T05:16:25;45174.75;;;-143.84;55.29
6032;BME280;3044;43.232;27.972;2024-01-25T05:18:52;45214.72;;;-143.84;55.68
6032;BME280;3044;43.232;27.972;2024-01-25T05:21:19;45186.16;;;-143.84;56.15
6032;BME280;3044;43.232;27.972;2024-01-25T05:23:46;45209.03;;;-143.84;56.50
6032;BME280;3044;43.232;27.972;2024-01-25T05:26:13;45199.50;;;-143.84;57.31
6032;BME280;3044;43.232;27.972;2024-01-25T05:28:41;45197.59;;;-143.84;56.83
6032;BME280;3044;43.232;27.972;2024-01-25T05:31:08;45199.50;;;-143.84;57.69
6032;BME280;3044;43.232;27.972;2024-01-25T05:33:39;45203.31;;;-143.84;58.19
6032;BME280;3044;43.232;27.972;2024-01-25T05:36:07;45174.75;;;-143.84;59.18
6032;BME280;3044;43.232;27.972;2024-01-25T05:38:34;45186.16;;;-143.84;59.27
6032;BME280;3044;43.232;27.972;2024-01-25T05:41:01;45207.13;;;-143.84;59.80
6032;BME280;3044;43.232;27.972;2024-01-25T05:43:28;45209.03;;;-143.84;60.00
6032;BME280;3044;43.232;27.972;2024-01-25T05:45:55;45209.03;;;-143.84;60.43
6032;BME280;3044;43.232;27.972;2024-01-25T05:48:23;45189.97;;;-143.84;60.93
6032;BME280;3044;43.232;27.972;2024-01-25T05:50:51;45197.59;;;-143.84;61.26
6032;BME280;3044;43.232;27.972;2024-01-25T05:53:19;45209.03;;;-143.84;62.15
6032;BME280;3044;43.232;27.972;2024-01-25T05:55:47;45195.69;;;-143.84;62.91
6032;BME280;3044;43.232;27.972;2024-01-25T05:58:14;45209.03;;;-143.84;63.58
6032;BME280;3044;43.232;27.972;2024-01-25T06:00:42;45180.47;;;-143.84;63.74
6032;BME280;3044;43.232;27.972;2024-01-25T06:03:09;45205.22;;;-143.84;64.69
6032;BME280;3044;43.232;27.972;2024-01-25T06:05:36;45207.13;;;-143.84;65.40
6032;BME280;3044;43.232;27.972;2024-01-25T06:08:05;45216.63;;;-143.84;66.10
6032;BME280;3044;43.232;27.972;2024-01-25T06:10:32;45205.22;;;-143.84;66.48
6032;BME280;3044;43.232;27.972;2024-01-25T06:13:00;45224.25;;;-143.84;66.54
6032;BME280;3044;43.232;27.972;2024-01-25T06:15:27;45210.94;;;-143.84;66.91
6032;BME280;3044;43.232;27.972;2024-01-25T06:17:54;45188.06;;;-143.84;66.84
6032;BME280;3044;43.232;27.972;2024-01-25T06:20:21;45218.53;;;-143.84;67.04
6032;BME280;3044;43.232;27.972;2024-01-25T06:22:49;45195.69;;;-143.84;67.27
6032;BME280;3044;43.232;27.972;2024-01-25T06:25:17;45169.03;;;-143.84;67.43
6032;BME280;3044;43.232;27.972;2024-01-25T06:27:44;45226.16;;;-143.84;67.72
6032;BME280;3044;43.232;27.972;2024-01-25T06:30:13;45193.78;;;-143.84;67.89
6032;BME280;3044;43.232;27.972;2024-01-25T06:32:40;45178.56;;;-143.84;67.29
6032;BME280;3044;43.232;27.972;2024-01-25T06:35:08;45201.41;;;-143.84;67.18
6032;BME280;3044;43.232;27.972;2024-01-25T06:37:35;45205.22;;;-143.84;67.38
6032;BME280;3044;43.232;27.972;2024-01-25T06:40:03;45189.97;;;-143.84;67.35
6032;BME280;3044;43.232;27.972;2024-01-25T06:42:31;45197.59;;;-143.84;67.88
6032;BME280;3044;43.232;27.972;2024-01-25T06:44:59;45218.53;;;-143.84;67.98
6032;BME280;3044;43.232;27.972;2024-01-25T06:47:26;45235.69;;;-143.84;68.29
6032;BME280;3044;43.232;27.972;2024-01-25T06:49:53;45197.59;;;-143.84;68.71
6032;BME280;3044;43.232;27.972;2024-01-25T06:52:20;45220.44;;;-143.84;68.43
6032;BME280;3044;43.232;27.972;2024-01-25T06:54:47;45178.56;;;-143.84;68.16
6032;BME280;3044;43.232;27.972;2024-01-25T06:57:15;45178.56;;;-143.84;67.24
6032;BME280;3044;43.232;27.972;2024-01-25T06:59:43;45195.69;;;-143.84;66.41
6032;BME280;3044;43.232;27.972;2024-01-25T07:02:11;45210.94;;;-143.84;65.73
6032;BME280;3044;43.232;27.972;2024-01-25T07:04:38;45207.13;;;-143.84;65.44
6032;BME280;3044;43.232;27.972;2024-01-25T07:07:06;45193.78;;;-143.84;64.92
6032;BME280;3044;43.232;27.972;2024-01-25T07:09:33;45189.97;;;-143.84;64.65
6032;BME280;3044;43.232;27.972;2024-01-25T07:12:00;45180.47;;;-143.84;65.13
6032;BME280;3044;43.232;27.972;2024-01-25T07:14:27;45220.44;;;-143.84;64.37
6032;BME280;3044;43.232;27.972;2024-01-25T07:16:56;45170.94;;;-143.84;63.91
6032;BME280;3044;43.232;27.972;2024-01-25T07:19:23;45188.06;;;-143.84;63.08
6032;BME280;3044;43.232;27.972;2024-01-25T07:21:50;45178.56;;;-143.84;61.86
6032;BME280;3044;43.232;27.972;2024-01-25T07:24:17;45178.56;;;-143.84;61.80
6032;BME280;3044;43.232;27.972;2024-01-25T07:26:44;45148.09;;;-143.84;61.20
6032;BME280;3044;43.232;27.972;2024-01-25T07:29:12;45186.16;;;-143.84;60.71
6032;BME280;3044;43.232;27.972;2024-01-25T07:31:39;45170.94;;;-143.84;60.13
6032;BME280;3044;43.232;27.972;2024-01-25T07:34:07;45178.56;;;-143.84;59.69
6032;BME280;3044;43.232;27.972;2024-01-25T07:36:34;45199.50;;;-143.84;59.33
6032;BME280;3044;43.232;27.972;2024-01-25T07:39:00;45169.03;;;-143.84;58.59
6032;BME280;3044;43.232;27.972;2024-01-25T07:41:28;45178.56;;;-143.84;58.55
6032;BME280;3044;43.232;27.972;2024-01-25T07:43:55;45167.13;;;-143.84;58.14
6032;BME280;3044;43.232;27.972;2024-01-25T07:46:22;45199.50;;;-143.84;57.48
6032;BME280;3044;43.232;27.972;2024-01-25T07:48:50;45159.50;;;-143.84;56.15
6032;BME280;3044;43.232;27.972;2024-01-25T07:51:19;45174.75;;;-143.84;54.85
6032;BME280;3044;43.232;27.972;2024-01-25T07:53:46;45184.25;;;-143.84;53.89
6032;BME280;3044;43.232;27.972;2024-01-25T07:56:13;45155.69;;;-143.84;52.89
6032;BME280;3044;43.232;27.972;2024-01-25T07:58:40;45159.50;;;-143.84;51.97
6032;BME280;3044;43.232;27.972;2024-01-25T08:01:07;45150.00;;;-143.84;51.25
6032;BME280;3044;43.232;27.972;2024-01-25T08:03:35;45170.94;;;-143.84;50.55
6032;BME280;3044;43.232;27.972;2024-01-25T08:06:02;45155.69;;;-143.84;50.66
6032;BME280;3044;43.232;27.972;2024-01-25T08:08:31;45155.69;;;-143.84;49.13
6032;BME280;3044;43.232;27.972;2024-01-25T08:10:58;45150.00;;;-143.84;48.32
6032;BME280;3044;43.232;27.972;2024-01-25T08:13:26;45130.94;;;-143.84;48.34
6032;BME280;3044;43.232;27.972;2024-01-25T08:15:53;45140.47;;;-143.84;47.07
6032;BME280;3044;43.232;27.972;2024-01-25T08:18:20;45136.66;;;-143.84;45.66
6032;BME280;3044;43.232;27.972;2024-01-25T08:20:48;45129.03;;;-143.84;45.52
6032;BME280;3044;43.232;27.972;2024-01-25T08:23:16;45104.28;;;-143.84;44.91
6032;BME280;3044;43.232;27.972;2024-01-25T08:25:45;45151.91;;;-143.84;45.21
6032;BME280;3044;43.232;27.972;2024-01-25T08:28:13;45142.38;;;-143.84;44.08
6032;BME280;3044;43.232;27.972;2024-01-25T08:30:40;45130.94;;;-143.84;44.11
6032;BME280;3044;43.232;27.972;2024-01-25T08:33:07;45130.94;;;-143.84;44.26
6032;BME280;3044;43.232;27.972;2024-01-25T08:35:34;45142.38;;;-143.84;44.33
6032;BME280;3044;43.232;27.972;2024-01-25T08:38:01;45150.00;;;-143.84;44.51
6032;BME280;3044;43.232;27.972;2024-01-25T08:40:29;45142.38;;;-143.84;43.93
6032;BME280;3044;43.232;27.972;2024-01-25T08:42:58;45119.53;;;-143.84;43.73
6032;BME280;3044;43.232;27.972;2024-01-25T08:45:25;45138.56;;;-143.84;43.92
6032;BME280;3044;43.232;27.972;2024-01-25T08:47:52;45136.66;;;-143.84;44.13
6032;BME280;3044;43.232;27.972;2024-01-25T08:50:21;45153.81;;;-143.84;44.80
6032;BME280;3044;43.232;27.972;2024-01-25T08:52:48;45153.81;;;-143.84;46.46
6032;BME280;3044;43.232;27.972;2024-01-25T08:55:15;45148.09;;;-143.84;46.71
6032;BME280;3044;43.232;27.972;2024-01-25T08:57:43;45129.03;;;-143.84;47.68
6032;BME280;3044;43.232;27.972;2024-01-25T09:00:12;45142.38;;;-143.84;47.88
6032;BME280;3044;43.232;27.972;2024-01-25T09:02:39;45146.19;;;-143.84;46.58
6032;BME280;3044;43.232;27.972;2024-01-25T09:05:08;45140.47;;;-143.84;46.83
6032;BME280;3044;43.232;27.972;2024-01-25T09:07:35;45169.03;;;-143.84;47.09
6032;BME280;3044;43.232;27.972;2024-01-25T09:10:03;45125.22;;;-143.84;47.56
6032;BME280;3044;43.232;27.972;2024-01-25T09:12:31;45129.03;;;-143.84;47.86
6032;BME280;3044;43.232;27.972;2024-01-25T09:14:58;45157.59;;;-143.84;47.60
6032;BME280;3044;43.232;27.972;2024-01-25T09:17:27;45121.44;;;-143.84;47.20
6032;BME280;3044;43.232;27.972;2024-01-25T09:19:54;45123.34;;;-143.84;46.99
6032;BME280;3044;43.232;27.972;2024-01-25T09:22:24;45148.09;;;-143.84;46.68
6032;BME280;3044;43.232;27.972;2024-01-25T09:24:52;45165.22;;;-143.84;47.88
6032;BME280;3044;43.232;27.972;2024-01-25T09:27:19;45165.22;;;-143.84;47.96
6032;BME280;3044;43.232;27.972;2024-01-25T09:29:46;45146.19;;;-143.84;48.77
6032;BME280;3044;43.232;27.972;2024-01-25T09:32:14;45140.47;;;-143.84;49.68
6032;BME280;3044;43.232;27.972;2024-01-25T09:34:42;45157.59;;;-143.84;49.54
6032;BME280;3044;43.232;27.972;2024-01-25T09:37:09;45150.00;;;-143.84;49.10
6032;BME280;3044;43.232;27.972;2024-01-25T09:39:37;45151.91;;;-143.84;50.14
6032;BME280;3044;43.232;27.972;2024-01-25T09:42:04;45146.19;;;-143.84;50.59
6032;BME280;3044;43.232;27.972;2024-01-25T09:44:32;45161.41;;;-143.84;50.51
6032;BME280;3044;43.232;27.972;2024-01-25T09:47:02;45159.50;;;-143.84;51.32
6032;BME280;3044;43.232;27.972;2024-01-25T09:49:31;45161.41;;;-143.84;51.55
6032;BME280;3044;43.232;27.972;2024-01-25T09:52:01;45167.13;;;-143.84;52.72
6032;BME280;3044;43.232;27.972;2024-01-25T09:54:30;45123.34;;;-143.84;52.70
6032;BME280;3044;43.232;27.972;2024-01-25T09:56:59;45148.09;;;-143.84;53.89
6032;BME280;3044;43.232;27.972;2024-01-25T09:59:27;45134.75;;;-143.84;53.64
6032;BME280;3044;43.232;27.972;2024-01-25T10:01:55;45174.75;;;-143.84;53.24
6032;BME280;3044;43.232;27.972;2024-01-25T10:04:23;45134.75;;;-143.84;53.04
6032;BME280;3044;43.232;27.972;2024-01-25T10:06:50;45132.84;;;-143.84;53.40
6032;BME280;3044;43.232;27.972;2024-01-25T10:09:19;45142.38;;;-143.84;52.85
6032;BME280;3044;43.232;27.972;2024-01-25T10:11:46;45142.38;;;-143.84;53.36
6032;BME280;3044;43.232;27.972;2024-01-25T10:14:13;45180.47;;;-143.84;54.06
6032;BME280;3044;43.232;27.972;2024-01-25T10:16:40;45150.00;;;-143.84;54.59
6032;BME280;3044;43.232;27.972;2024-01-25T10:19:07;45157.59;;;-143.84;56.17
6032;BME280;3044;43.232;27.972;2024-01-25T10:21:36;45130.94;;;-143.84;55.57
6032;BME280;3044;43.232;27.972;2024-01-25T10:24:05;45172.84;;;-143.84;56.09
6032;BME280;3044;43.232;27.972;2024-01-25T10:26:35;45161.41;;;-143.84;55.28
6032;BME280;3044;43.232;27.972;2024-01-25T10:29:02;45157.59;;;-143.84;55.55
6032;BME280;3044;43.232;27.972;2024-01-25T10:31:30;45151.91;;;-143.84;52.67
6032;BME280;3044;43.232;27.972;2024-01-25T10:33:57;45150.00;;;-143.84;53.09
6032;BME280;3044;43.232;27.972;2024-01-25T10:36:26;45140.47;;;-143.84;53.46
6032;BME280;3044;43.232;27.972;2024-01-25T10:38:54;45174.75;;;-143.84;53.70
6032;BME280;3044;43.232;27.972;2024-01-25T10:41:23;45136.66;;;-143.84;53.30
6032;BME280;3044;43.232;27.972;2024-01-25T10:43:52;45142.38;;;-143.84;53.63
6032;BME280;3044;43.232;27.972;2024-01-25T10:46:20;45146.19;;;-143.84;54.01
6032;BME280;3044;43.232;27.972;2024-01-25T10:48:48;45146.19;;;-143.84;53.49
6032;BME280;3044;43.232;27.972;2024-01-25T10:51:15;45134.75;;;-143.84;53.46
6032;BME280;3044;43.232;27.972;2024-01-25T10:53:44;45146.19;;;-143.84;53.80
6032;BME280;3044;43.232;27.972;2024-01-25T10:56:12;45144.28;;;-143.84;53.15
6032;BME280;3044;43.232;27.972;2024-01-25T10:58:41;45140.47;;;-143.84;54.02
6032;BME280;3044;43.232;27.972;2024-01-25T11:01:10;45150.00;;;-143.84;55.24
6032;BME280;3044;43.232;27.972;2024-01-25T11:03:40;45142.38;;;-143.84;55.34
6032;BME280;3044;43.232;27.972;2024-01-25T11:06:08;45159.50;;;-143.84;55.74
6032;BME280;3044;43.232;27.972;2024-01-25T11:08:35;45153.81;;;-143.84;56.22
6032;BME280;3044;43.232;27.972;2024-01-25T11:11:05;45161.41;;;-143.84;56.84
6032;BME280;3044;43.232;27.972;2024-01-25T11:13:33;45132.84;;;-143.84;57.08
6032;BME280;3044;43.232;27.972;2024-01-25T11:16:13;45129.03;;;-143.84;57.25
6032;BME280;3044;43.232;27.972;2024-01-25T11:18:51;45129.03;;;-143.84;58.78
6032;BME280;3044;43.232;27.972;2024-01-25T11:21:28;45127.13;;;-143.84;57.82
6032;BME280;3044;43.232;27.972;2024-01-25T11:24:00;45148.09;;;-143.84;56.87
6032;BME280;3044;43.232;27.972;2024-01-25T11:26:27;45161.41;;;-143.84;56.45
6032;BME280;3044;43.232;27.972;2024-01-25T11:28:55;45125.22;;;-143.84;56.13
6032;BME280;3044;43.232;27.972;2024-01-25T11:31:27;45178.56;;;-143.84;55.46
6032;BME280;3044;43.232;27.972;2024-01-25T11:33:57;45151.91;;;-143.84;54.97
6032;BME280;3044;43.232;27.972;2024-01-25T11:36:25;45163.31;;;-143.84;54.75
6032;BME280;3044;43.232;27.972;2024-01-25T11:38:52;45146.19;;;-143.84;55.58
6032;BME280;3044;43.232;27.972;2024-01-25T11:41:19;45129.03;;;-143.84;55.37
6032;BME280;3044;43.232;27.972;2024-01-25T11:43:48;45159.50;;;-143.84;55.00
6032;BME280;3044;43.232;27.972;2024-01-25T11:46:15;45174.75;;;-143.84;54.98
6032;BME280;3044;43.232;27.972;2024-01-25T11:48:45;45140.47;;;-143.84;54.92
6032;BME280;3044;43.232;27.972;2024-01-25T11:51:12;45155.69;;;-143.84;54.71
6032;BME280;3044;43.232;27.972;2024-01-25T11:53:40;45140.47;;;-143.84;54.43
6032;BME280;3044;43.232;27.972;2024-01-25T11:56:09;45146.19;;;-143.84;54.64
6032;BME280;3044;43.232;27.972;2024-01-25T11:58:37;45170.94;;;-143.84;54.93
6032;BME280;3044;43.232;27.972;2024-01-25T12:01:05;45151.91;;;-143.84;55.06
6032;BME280;3044;43.232;27.972;2024-01-25T12:03:34;45159.50;;;-143.84;55.02
6032;BME280;3044;43.232;27.972;2024-01-25T12:06:04;45155.69;;;-143.84;55.50
6032;BME280;3044;43.232;27.972;2024-01-25T12:08:32;45151.91;;;-143.84;54.87
6032;BME280;3044;43.232;27.972;2024-01-25T12:11:03;45148.09;;;-143.84;55.85
6032;BME280;3044;43.232;27.972;2024-01-25T12:13:34;45178.56;;;-143.84;56.45
6032;BME280;3044;43.232;27.972;2024-01-25T12:16:03;45176.66;;;-143.84;56.20
6032;BME280;3044;43.232;27.972;2024-01-25T12:18:30;45151.91;;;-143.84;55.65
6032;BME280;3044;43.232;27.972;2024-01-25T12:20:59;45170.94;;;-143.84;56.31
6032;BME280;3044;43.232;27.972;2024-01-25T12:23:32;45191.88;;;-143.84;56.47
6032;BME280;3044;43.232;27.972;2024-01-25T12:26:00;45127.13;;;-143.84;56.66
6032;BME280;3044;43.232;27.972;2024-01-25T12:28:29;45167.13;;;-143.84;57.62
6032;BME280;3044;43.232;27.972;2024-01-25T12:30:58;45159.50;;;-143.84;59.03
6032;BME280;3044;43.232;27.972;2024-01-25T12:33:26;45146.19;;;-143.84;60.65
6032;BME280;3044;43.232;27.972;2024-01-25T12:35:54;45138.56;;;-143.84;61.85
6032;BME280;3044;43.232;27.972;2024-01-25T12:38:21;45153.81;;;-143.84;62.03
6032;BME280;3044;43.232;27.972;2024-01-25T12:40:50;45170.94;;;-143.84;61.47
6032;BME280;3044;43.232;27.972;2024-01-25T12:43:17;45153.81;;;-143.84;61.37
6032;BME280;3044;43.232;27.972;2024-01-25T12:45:46;45140.47;;;-143.84;61.22
6032;BME280;3044;43.232;27.972;2024-01-25T12:48:14;45155.69;;;-143.84;59.84
6032;BME280;3044;43.232;27.972;2024-01-25T12:50:41;45161.41;;;-143.84;59.13
6032;BME280;3044;43.232;27.972;2024-01-25T12:53:10;45167.13;;;-143.84;58.75